This is the latest recevied weather packets stored in our database for station/object K7CTM. If no packets are shown the sender has not sent any weather packets the latest 10 day(s).
| Time | Temp. | Humidity | Pressure | Rain* | Wind** | Luminosity | Snow |
|---|---|---|---|---|---|---|---|
| 1777796324 | 7.78° C | 67% | 1025.7 hPa | 0 mm | - | 0 W/m² | - |
| 1777796021 | 7.78° C | 67% | 1026 hPa | 0 mm | - | 0 W/m² | - |
| 1777795717 | 7.78° C | 67% | 1026.2 hPa | 0 mm | - | 0 W/m² | - |
| 1777795414 | 7.78° C | 68% | 1026.1 hPa | 0 mm | - | 0 W/m² | - |
| 1777795111 | 7.22° C | 68% | 1026.1 hPa | 0 mm | - | 0 W/m² | - |
| 1777794806 | 7.78° C | 68% | 1026.1 hPa | 0 mm | - | 0 W/m² | - |
| 1777794503 | 7.78° C | 66% | 1026.1 hPa | 0 mm | - | 0 W/m² | - |
| 1777794198 | 7.78° C | 67% | 1026 hPa | 0 mm | - | 0 W/m² | - |
| 1777793895 | 7.22° C | 70% | 1026 hPa | 0 mm | - | 0 W/m² | - |
| 1777793593 | 7.22° C | 70% | 1026 hPa | 0 mm | - | 0 W/m² | - |
| 1777793291 | 6.67° C | 74% | 1026.4 hPa | 0 mm | - | 0 W/m² | - |
| 1777792988 | 7.78° C | 71% | 1026.5 hPa | 0 mm | - | 0 W/m² | - |
| 1777792684 | 8.33° C | 65% | 1026.1 hPa | 0 mm | - | 0 W/m² | - |
| 1777792381 | 8.33° C | 65% | 1026.5 hPa | 0 mm | - | 0 W/m² | - |
| 1777792077 | 9.44° C | 62% | 1026.6 hPa | 0 mm | - | 0 W/m² | - |
| 1777791775 | 9.44° C | 61% | 1026.5 hPa | 0 mm | - | 0 W/m² | - |
| 1777791474 | 8.89° C | 63% | 1026.5 hPa | 0 mm | - | 0 W/m² | - |
| 1777791170 | 8.89° C | 63% | 1026.3 hPa | 0 mm | - | 0 W/m² | - |
| 1777790868 | 9.44° C | 61% | 1026.4 hPa | 0 mm | - | 0 W/m² | - |
| 1777790565 | 9.44° C | 61% | 1026.5 hPa | 0 mm | - | 0 W/m² | - |
| 1777790262 | 10° C | 60% | 1026.5 hPa | 0 mm | - | 0 W/m² | - |
| 1777789961 | 10° C | 59% | 1026.6 hPa | 0 mm | - | 0 W/m² | - |
| 1777789658 | 10° C | 59% | 1026.6 hPa | 0 mm | - | 0 W/m² | - |
| 1777789357 | 8.89° C | 62% | 1026.9 hPa | 0 mm | - | 0 W/m² | - |
| 1777789054 | 8.89° C | 63% | 1026.8 hPa | 0 mm | - | 0 W/m² | - |
* Rain latest hour (hover to see other rain measurements)
** Current wind speed in m/s (hover to see current wind gust speed)